KPQI/PQI METAR and TAF weather

Enter ICAO airport designator
Station Type Date Time Source
KPQI METAR 2020/01/21 17:56 UTC NOAA

KPQI 211756Z AUTO 00000KT 10SM CLR M09/M17 A3029 RMK AO2 SLP296 T10891167 11067 21294 58017


Station Type Date Time Source
KPQI Decoded METAR 2020/01/21 17:56 UTC NOAA

Presque Isle, ME, United States (KPQI) 46-41N 068-03W 146M
Jan 21, 2020 - 12:56 PM EST / 2020.01.21 1756 UTC
Wind: Calm:0
Visibility: 10 mile(s):0
Sky conditions: clear
Temperature: 16.0 F (-8.9 C)
Dew Point: 1.9 F (-16.7 C)
Relative Humidity: 53%
Pressure (altimeter): 30.29 in. Hg (1025 hPa)
Pressure tendency: 0.05 inches (1.7 hPa) lower than three hours ago
ob: KPQI 211756Z AUTO 00000KT 10SM CLR M09/M17 A3029 RMK AO2 SLP296 T10891167 11067 21294 58017
cycle: 18

Station Type Date Time Source
KPQI TAF 2020/01/21 18:36 UTC NOAA

TAF KPQI 211734Z 2118/2218 21003KT P6SM FEW090
FM220200 19005KT P6SM VCSH BKN060
FM220600 19005KT P6SM BKN027
FM221000 18003KT P6SM SCT035
FM221700 18004KT P6SM SCT080

Example: see airport list